createdAt,value
2023-05-18T00:00:38.214Z,41.29
2023-05-18T00:01:38.216Z,41.25
2023-05-18T00:02:38.370Z,41.26
2023-05-18T00:03:38.330Z,41.26
2023-05-18T00:04:38.304Z,41.27
2023-05-18T00:05:38.252Z,41.28
2023-05-18T00:06:38.260Z,41.29
2023-05-18T00:07:38.276Z,41.27
2023-05-18T00:08:38.409Z,41.27
2023-05-18T00:09:38.407Z,41.26
2023-05-18T00:10:38.457Z,41.26
2023-05-18T00:11:38.521Z,41.29
2023-05-18T00:12:38.580Z,41.28
2023-05-18T00:13:38.657Z,41.28
2023-05-18T00:14:38.698Z,41.26
2023-05-18T00:15:38.744Z,41.27
2023-05-18T00:16:38.851Z,41.26
2023-05-18T00:17:38.886Z,41.26
2023-05-18T00:18:38.951Z,41.26
2023-05-18T00:19:38.982Z,41.24
2023-05-18T00:20:39.063Z,41.22
2023-05-18T00:21:39.112Z,41.24
2023-05-18T00:22:39.173Z,41.23
2023-05-18T00:23:39.216Z,41.23
2023-05-18T00:24:39.284Z,41.25
2023-05-18T00:25:39.367Z,41.22
2023-05-18T00:26:39.428Z,41.23
2023-05-18T00:27:39.506Z,41.23
2023-05-18T00:28:39.579Z,41.22
2023-05-18T00:29:39.650Z,41.21
2023-05-18T00:30:39.687Z,41.22
2023-05-18T00:31:39.829Z,41.23
2023-05-18T00:32:39.859Z,41.23
2023-05-18T00:33:39.868Z,41.24
2023-05-18T00:34:39.939Z,41.24
2023-05-18T00:35:40.011Z,41.20
2023-05-18T00:36:40.066Z,41.23
2023-05-18T00:37:40.149Z,41.21
2023-05-18T00:38:40.214Z,41.21
2023-05-18T00:39:40.284Z,41.21
2023-05-18T00:40:40.351Z,41.21
2023-05-18T00:41:40.412Z,41.22
2023-05-18T00:42:40.486Z,41.24
2023-05-18T00:43:40.545Z,41.21
2023-05-18T00:44:40.605Z,41.23
2023-05-18T00:45:40.693Z,41.22
2023-05-18T00:46:40.734Z,41.23
2023-05-18T00:47:40.826Z,41.24
2023-05-18T00:48:40.858Z,41.20
2023-05-18T00:49:40.942Z,41.22
2023-05-18T00:50:41.008Z,41.22
2023-05-18T00:51:41.118Z,41.22
2023-05-18T00:52:41.177Z,41.24
2023-05-18T00:53:43.972Z,41.24
2023-05-18T00:54:41.260Z,41.22
2023-05-18T00:55:41.394Z,41.21
2023-05-18T00:56:41.276Z,41.24
2023-05-18T00:57:41.283Z,41.25
2023-05-18T00:58:41.295Z,41.25
2023-05-18T00:59:41.306Z,41.23
2023-05-18T01:00:41.320Z,41.22
2023-05-18T01:01:41.342Z,41.23
2023-05-18T01:02:41.436Z,41.23
2023-05-18T01:03:41.381Z,41.22
2023-05-18T01:04:41.346Z,41.24
2023-05-18T01:05:41.358Z,41.24
2023-05-18T01:06:41.388Z,41.22
2023-05-18T01:07:41.368Z,41.20
2023-05-18T01:08:41.382Z,41.20
2023-05-18T01:09:41.391Z,41.21
2023-05-18T01:10:41.395Z,41.22
2023-05-18T01:11:41.459Z,41.24
2023-05-18T01:12:41.437Z,41.25
2023-05-18T01:13:41.429Z,41.23
2023-05-18T01:14:41.448Z,41.22
2023-05-18T01:15:41.449Z,41.23
2023-05-18T01:16:41.520Z,41.23
2023-05-18T01:17:41.516Z,41.22
2023-05-18T01:18:41.536Z,41.23
2023-05-18T01:19:41.503Z,41.21
2023-05-18T01:20:41.504Z,41.23
2023-05-18T01:21:41.517Z,41.22
2023-05-18T01:22:41.521Z,41.22
2023-05-18T01:23:41.577Z,41.23
2023-05-18T01:24:41.545Z,41.22
2023-05-18T01:25:41.545Z,41.24
2023-05-18T01:26:41.549Z,41.21
2023-05-18T01:27:41.558Z,41.21
2023-05-18T01:28:41.577Z,41.21
2023-05-18T01:29:41.586Z,41.22
2023-05-18T01:30:41.631Z,41.22
2023-05-18T01:31:41.593Z,41.21
2023-05-18T01:32:41.647Z,41.22
2023-05-18T01:33:41.621Z,41.22
2023-05-18T01:34:41.654Z,41.22
2023-05-18T01:35:41.639Z,41.21
2023-05-18T01:36:41.659Z,41.23
2023-05-18T01:37:41.675Z,41.23
2023-05-18T01:38:43.876Z,41.20
2023-05-18T01:39:41.684Z,41.25
2023-05-18T01:40:41.702Z,41.21
2023-05-18T01:41:41.699Z,41.26
2023-05-18T01:42:41.708Z,41.25
2023-05-18T01:43:41.735Z,41.24
2023-05-18T01:44:41.733Z,41.24
2023-05-18T01:45:41.738Z,41.22
2023-05-18T01:46:41.789Z,41.25
2023-05-18T01:47:41.763Z,41.26
2023-05-18T01:48:41.768Z,41.25
2023-05-18T01:49:41.806Z,41.25
2023-05-18T01:50:41.782Z,41.22
2023-05-18T01:51:41.802Z,41.24
2023-05-18T01:52:41.900Z,41.24
2023-05-18T01:53:41.828Z,41.24
2023-05-18T01:54:41.826Z,41.24
2023-05-18T01:55:41.894Z,41.23
2023-05-18T01:56:41.868Z,41.23
2023-05-18T01:57:41.864Z,41.22
2023-05-18T01:58:41.871Z,41.24
2023-05-18T01:59:41.895Z,41.22
2023-05-18T02:00:41.893Z,41.20
2023-05-18T02:01:41.951Z,41.22
2023-05-18T02:02:41.972Z,41.25
2023-05-18T02:03:42.035Z,41.23
2023-05-18T02:04:41.920Z,41.23
2023-05-18T02:05:41.971Z,41.23
2023-05-18T02:06:41.922Z,41.22
2023-05-18T02:07:41.927Z,41.24
2023-05-18T02:08:41.944Z,41.22
2023-05-18T02:09:41.981Z,41.21
2023-05-18T02:10:41.942Z,41.21
2023-05-18T02:11:41.962Z,41.24
2023-05-18T02:12:41.977Z,41.20
2023-05-18T02:13:41.964Z,41.21
2023-05-18T02:14:42.036Z,41.22
2023-05-18T02:15:41.977Z,41.23
2023-05-18T02:16:42.046Z,41.22
2023-05-18T02:17:42.035Z,41.21
2023-05-18T02:18:42.053Z,41.24
2023-05-18T02:19:42.026Z,41.21
2023-05-18T02:20:42.090Z,41.22
2023-05-18T02:21:42.062Z,41.23
2023-05-18T02:22:42.092Z,41.23
2023-05-18T02:23:42.115Z,41.24
2023-05-18T02:24:42.080Z,41.23
2023-05-18T02:25:42.093Z,41.21
2023-05-18T02:26:42.108Z,41.21
2023-05-18T02:27:42.096Z,41.24
2023-05-18T02:28:42.122Z,41.21
2023-05-18T02:29:42.128Z,41.22
2023-05-18T02:30:42.118Z,41.22
2023-05-18T02:31:42.253Z,41.21
2023-05-18T02:32:42.227Z,41.21
2023-05-18T02:33:42.191Z,41.21
2023-05-18T02:34:42.359Z,41.20
2023-05-18T02:35:42.280Z,41.18
2023-05-18T02:36:42.343Z,41.20
2023-05-18T02:37:42.387Z,41.20
2023-05-18T02:38:42.411Z,41.21
2023-05-18T02:39:42.450Z,41.19
2023-05-18T02:40:42.490Z,41.19
2023-05-18T02:41:42.528Z,41.23
2023-05-18T02:42:42.591Z,41.20
2023-05-18T02:43:42.626Z,41.21
2023-05-18T02:44:42.684Z,41.18
2023-05-18T02:45:42.740Z,41.18
2023-05-18T02:46:42.802Z,41.20
2023-05-18T02:47:42.910Z,41.21
2023-05-18T02:48:42.958Z,41.22
2023-05-18T02:49:43.036Z,41.20
2023-05-18T02:50:43.113Z,41.22
2023-05-18T02:51:43.184Z,41.22
2023-05-18T02:52:43.256Z,41.20
2023-05-18T02:53:43.327Z,41.19
2023-05-18T02:54:43.385Z,41.21
2023-05-18T02:55:43.464Z,41.21
2023-05-18T02:56:43.535Z,41.20
2023-05-18T02:57:43.620Z,41.20
2023-05-18T02:58:43.736Z,41.20
2023-05-18T02:59:43.784Z,41.20
2023-05-18T03:00:43.852Z,41.23
2023-05-18T03:01:44.126Z,41.20
2023-05-18T03:02:44.031Z,41.23
2023-05-18T03:03:44.118Z,41.23
2023-05-18T03:04:44.098Z,41.21
2023-05-18T03:05:44.180Z,41.25
2023-05-18T03:06:44.259Z,41.21
2023-05-18T03:07:44.331Z,41.19
2023-05-18T03:08:44.376Z,41.22
2023-05-18T03:09:44.460Z,41.20
2023-05-18T03:10:44.524Z,41.19
2023-05-18T03:11:44.591Z,41.22
2023-05-18T03:12:44.638Z,41.21
2023-05-18T03:13:44.713Z,41.21
2023-05-18T03:14:44.794Z,41.21
2023-05-18T03:15:44.830Z,41.21
2023-05-18T03:16:44.918Z,41.23
2023-05-18T03:17:45.042Z,41.23
2023-05-18T03:18:45.070Z,41.23
2023-05-18T03:19:45.088Z,41.20
2023-05-18T03:20:45.161Z,41.21
2023-05-18T03:21:45.229Z,41.23
2023-05-18T03:22:45.283Z,41.21
2023-05-18T03:23:45.348Z,41.21
2023-05-18T03:24:45.436Z,41.20
2023-05-18T03:25:45.460Z,41.20
2023-05-18T03:26:45.527Z,41.22
2023-05-18T03:27:45.594Z,41.22
2023-05-18T03:28:45.658Z,41.22
2023-05-18T03:29:45.751Z,41.21
2023-05-18T03:30:45.802Z,41.20
2023-05-18T03:31:45.864Z,41.21
2023-05-18T03:32:45.920Z,41.20
2023-05-18T03:33:45.948Z,41.21
2023-05-18T03:34:46.000Z,41.23
2023-05-18T03:35:47.782Z,41.22
2023-05-18T03:36:46.134Z,41.21
2023-05-18T03:37:46.176Z,41.22
2023-05-18T03:38:46.230Z,41.22
2023-05-18T03:39:46.261Z,41.20
2023-05-18T03:40:46.410Z,41.22
2023-05-18T03:41:46.352Z,41.21
2023-05-18T03:42:46.389Z,41.21
2023-05-18T03:43:46.448Z,41.21
2023-05-18T03:44:46.481Z,41.22
2023-05-18T03:45:46.521Z,41.22
2023-05-18T03:46:46.650Z,41.19
2023-05-18T03:47:46.654Z,41.22
2023-05-18T03:48:46.653Z,41.20
2023-05-18T03:49:46.678Z,41.20
2023-05-18T03:50:46.710Z,41.23
2023-05-18T03:51:46.728Z,41.22
2023-05-18T03:52:46.735Z,41.23
2023-05-18T03:53:46.755Z,41.22
2023-05-18T03:54:46.773Z,41.24
2023-05-18T03:55:46.831Z,41.21
2023-05-18T03:56:46.862Z,41.19
2023-05-18T03:57:46.911Z,41.20
2023-05-18T03:58:46.934Z,41.20
2023-05-18T03:59:46.972Z,41.22
2023-05-18T04:00:46.971Z,41.21
2023-05-18T04:01:47.016Z,41.23
2023-05-18T04:02:47.041Z,41.20
2023-05-18T04:03:47.049Z,41.18
2023-05-18T04:04:47.010Z,41.19
2023-05-18T04:05:47.021Z,41.19
2023-05-18T04:06:47.028Z,41.20
2023-05-18T04:07:47.072Z,41.18
2023-05-18T04:08:47.091Z,41.19
2023-05-18T04:09:47.153Z,41.21
2023-05-18T04:10:47.199Z,41.22
2023-05-18T04:11:47.219Z,41.24
2023-05-18T04:12:47.263Z,41.22
2023-05-18T04:13:47.325Z,41.23
2023-05-18T04:14:47.365Z,41.25
2023-05-18T04:15:47.466Z,41.18
2023-05-18T04:16:47.578Z,41.21
2023-05-18T04:17:47.506Z,41.21
2023-05-18T04:18:47.536Z,41.21
2023-05-18T04:19:47.502Z,41.24
2023-05-18T04:20:47.538Z,41.26
2023-05-18T04:21:47.541Z,41.23
2023-05-18T04:22:47.530Z,41.22
2023-05-18T04:23:47.557Z,41.23
2023-05-18T04:24:47.755Z,41.23
2023-05-18T04:25:47.605Z,41.23
2023-05-18T04:26:47.634Z,41.23
2023-05-18T04:27:50.451Z,41.24
2023-05-18T04:28:47.764Z,41.20
2023-05-18T04:29:47.705Z,41.23
2023-05-18T04:30:47.708Z,41.25
2023-05-18T04:31:47.764Z,41.21
2023-05-18T04:32:47.779Z,41.23
2023-05-18T04:33:47.762Z,41.24
2023-05-18T04:34:47.761Z,41.22
2023-05-18T04:35:47.781Z,41.23
2023-05-18T04:36:47.792Z,41.25
2023-05-18T04:37:47.825Z,41.24
2023-05-18T04:38:47.825Z,41.24
2023-05-18T04:39:47.820Z,41.24
2023-05-18T04:40:47.831Z,41.21
2023-05-18T04:41:47.861Z,41.22
2023-05-18T04:42:48.662Z,41.21
2023-05-18T04:43:47.856Z,41.23
2023-05-18T04:44:47.882Z,41.20
2023-05-18T04:45:47.907Z,41.22
2023-05-18T04:46:47.899Z,41.23
2023-05-18T04:47:47.931Z,41.23
2023-05-18T04:48:47.905Z,41.22
2023-05-18T04:49:47.917Z,41.21
2023-05-18T04:50:47.928Z,41.23
2023-05-18T04:51:47.911Z,41.22
2023-05-18T04:52:47.936Z,41.23
2023-05-18T04:53:47.933Z,41.21
2023-05-18T04:54:47.933Z,41.21
2023-05-18T04:55:47.928Z,41.24
2023-05-18T04:56:47.932Z,41.24
2023-05-18T04:57:47.960Z,41.26
2023-05-18T04:58:47.953Z,41.21
2023-05-18T04:59:47.958Z,41.20
2023-05-18T05:00:47.998Z,41.20
2023-05-18T05:01:48.057Z,41.19
2023-05-18T05:02:48.046Z,41.22
2023-05-18T05:03:48.097Z,41.21
2023-05-18T05:04:47.980Z,41.24
2023-05-18T05:05:47.983Z,41.22
2023-05-18T05:06:48.000Z,41.23
2023-05-18T05:07:48.003Z,41.21
2023-05-18T05:08:48.002Z,41.22
2023-05-18T05:09:48.023Z,41.25
2023-05-18T05:10:48.029Z,41.23
2023-05-18T05:11:48.028Z,41.22
2023-05-18T05:12:49.509Z,41.26
2023-05-18T05:13:48.060Z,41.26
2023-05-18T05:14:48.074Z,41.24
2023-05-18T05:15:48.119Z,41.21
2023-05-18T05:16:48.089Z,41.22
2023-05-18T05:17:48.231Z,41.23
2023-05-18T05:18:48.146Z,41.23
2023-05-18T05:19:48.107Z,41.25
2023-05-18T05:20:48.161Z,41.23
2023-05-18T05:21:48.116Z,41.24
2023-05-18T05:22:48.161Z,41.24
2023-05-18T05:23:48.116Z,41.23
2023-05-18T05:24:48.195Z,41.21
2023-05-18T05:25:48.133Z,41.23
2023-05-18T05:26:48.137Z,41.19
2023-05-18T05:27:48.157Z,41.22
2023-05-18T05:28:48.157Z,41.22
2023-05-18T05:29:48.167Z,41.23
2023-05-18T05:30:48.156Z,41.21
2023-05-18T05:31:48.222Z,41.21
2023-05-18T05:32:48.200Z,41.22
2023-05-18T05:33:48.178Z,41.26
2023-05-18T05:34:48.181Z,41.23
2023-05-18T05:35:48.187Z,41.24
2023-05-18T05:36:48.263Z,41.24
2023-05-18T05:37:48.203Z,41.22
2023-05-18T05:38:48.211Z,41.25
2023-05-18T05:39:48.220Z,41.22
2023-05-18T05:40:48.242Z,41.23
2023-05-18T05:41:48.246Z,41.22
2023-05-18T05:42:48.246Z,41.25
2023-05-18T05:43:48.246Z,41.23
2023-05-18T05:44:48.257Z,41.23
2023-05-18T05:45:48.262Z,41.23
2023-05-18T05:46:48.296Z,41.24
2023-05-18T05:47:48.288Z,41.24
2023-05-18T05:48:48.346Z,41.24
2023-05-18T05:49:48.295Z,41.22
2023-05-18T05:50:48.304Z,41.24
2023-05-18T05:51:48.316Z,41.22
2023-05-18T05:52:48.322Z,41.21
2023-05-18T05:53:48.325Z,41.26
2023-05-18T05:54:48.331Z,41.25
2023-05-18T05:55:48.330Z,41.21
2023-05-18T05:56:48.342Z,41.20
2023-05-18T05:57:48.361Z,41.22
2023-05-18T05:58:48.391Z,41.22
2023-05-18T05:59:48.403Z,41.21
2023-05-18T06:00:48.421Z,41.20
2023-05-18T06:01:48.495Z,41.21
2023-05-18T06:02:48.464Z,41.21
2023-05-18T06:03:48.508Z,41.22
2023-05-18T06:04:48.508Z,41.21
2023-05-18T06:05:48.533Z,41.24
2023-05-18T06:06:48.561Z,41.24
2023-05-18T06:07:48.575Z,41.25
2023-05-18T06:08:48.583Z,41.26
2023-05-18T06:09:48.611Z,41.22
2023-05-18T06:10:48.657Z,41.22
2023-05-18T06:11:48.695Z,41.24
2023-05-18T06:12:48.701Z,41.22
2023-05-18T06:13:48.765Z,41.22
2023-05-18T06:14:48.787Z,41.24
2023-05-18T06:15:48.813Z,41.23
2023-05-18T06:16:48.897Z,41.21
2023-05-18T06:17:49.888Z,41.23
2023-05-18T06:18:48.935Z,41.24
2023-05-18T06:19:48.863Z,41.24
2023-05-18T06:20:48.876Z,41.23
2023-05-18T06:21:48.893Z,41.20
2023-05-18T06:22:48.888Z,41.24
2023-05-18T06:23:48.915Z,41.23
2023-05-18T06:24:48.910Z,41.22
2023-05-18T06:25:48.910Z,41.21
2023-05-18T06:26:48.914Z,41.21
2023-05-18T06:27:48.927Z,41.25
2023-05-18T06:28:48.923Z,41.27
2023-05-18T06:29:48.958Z,41.25
2023-05-18T06:30:48.949Z,41.21
2023-05-18T06:31:49.133Z,41.23
2023-05-18T06:32:49.016Z,41.22
2023-05-18T06:33:48.980Z,41.22
2023-05-18T06:34:48.986Z,41.23
2023-05-18T06:35:49.005Z,41.22
2023-05-18T06:36:49.000Z,41.21
2023-05-18T06:37:49.002Z,41.22
2023-05-18T06:38:49.008Z,41.23
2023-05-18T06:39:49.017Z,41.23
2023-05-18T06:40:49.011Z,41.23
2023-05-18T06:41:49.034Z,41.25
2023-05-18T06:42:49.042Z,41.22
2023-05-18T06:43:49.059Z,41.23
2023-05-18T06:44:49.071Z,41.24
2023-05-18T06:45:49.118Z,41.24
2023-05-18T06:46:49.120Z,41.24
2023-05-18T06:47:49.122Z,41.24
2023-05-18T06:48:49.110Z,41.22
2023-05-18T06:49:49.141Z,41.23
2023-05-18T06:50:49.172Z,41.22
2023-05-18T06:51:49.177Z,41.21
2023-05-18T06:52:49.184Z,41.20
2023-05-18T06:53:49.202Z,41.21
2023-05-18T06:54:49.213Z,41.22
2023-05-18T06:55:49.234Z,41.23
2023-05-18T06:56:49.234Z,41.23
2023-05-18T06:57:49.247Z,41.22
2023-05-18T06:58:49.260Z,41.22
2023-05-18T06:59:49.299Z,41.23
2023-05-18T07:00:49.320Z,41.23
2023-05-18T07:01:49.419Z,41.22
2023-05-18T07:02:49.385Z,41.21
2023-05-18T07:03:49.458Z,41.21
2023-05-18T07:04:49.403Z,41.23
2023-05-18T07:05:49.512Z,41.23
2023-05-18T07:06:49.469Z,41.22
2023-05-18T07:07:49.545Z,41.19
2023-05-18T07:08:49.525Z,41.21
2023-05-18T07:09:49.533Z,41.19
2023-05-18T07:10:49.557Z,41.20
2023-05-18T07:11:49.587Z,41.20
2023-05-18T07:12:49.612Z,41.20
2023-05-18T07:13:49.634Z,41.23
2023-05-18T07:14:49.640Z,41.22
2023-05-18T07:15:49.733Z,41.19
2023-05-18T07:16:49.697Z,41.23
2023-05-18T07:17:49.752Z,41.22
2023-05-18T07:18:49.798Z,41.20
2023-05-18T07:19:49.794Z,41.18
2023-05-18T07:20:49.789Z,41.21
2023-05-18T07:21:49.784Z,41.21
2023-05-18T07:22:49.791Z,41.20
2023-05-18T07:23:49.809Z,41.21
2023-05-18T07:24:49.845Z,41.19
2023-05-18T07:25:49.870Z,41.20
2023-05-18T07:26:49.900Z,41.21
2023-05-18T07:27:49.942Z,41.22
2023-05-18T07:28:49.959Z,41.21
2023-05-18T07:29:50.011Z,41.18
2023-05-18T07:30:50.054Z,41.21
2023-05-18T07:31:50.129Z,41.22
2023-05-18T07:32:50.170Z,41.20
2023-05-18T07:33:50.194Z,41.22
2023-05-18T07:34:50.224Z,41.22
2023-05-18T07:35:50.284Z,41.22
2023-05-18T07:36:50.309Z,41.22
2023-05-18T07:37:50.337Z,41.21
2023-05-18T07:38:50.367Z,41.20
2023-05-18T07:39:50.416Z,41.21
2023-05-18T07:40:50.440Z,41.21
2023-05-18T07:41:50.468Z,41.23
2023-05-18T07:42:50.478Z,41.18
2023-05-18T07:43:50.508Z,41.18
2023-05-18T07:44:50.525Z,41.18
2023-05-18T07:45:50.546Z,41.20
2023-05-18T07:46:50.586Z,41.19
2023-05-18T07:47:50.628Z,41.22
2023-05-18T07:48:50.594Z,41.22
2023-05-18T07:49:50.632Z,41.22
2023-05-18T07:50:50.783Z,41.19
2023-05-18T07:51:50.655Z,41.21
2023-05-18T07:52:50.684Z,41.20
2023-05-18T07:53:50.695Z,41.19
2023-05-18T07:54:50.696Z,41.20
2023-05-18T07:55:50.703Z,41.21
2023-05-18T07:56:50.717Z,41.18
2023-05-18T07:57:50.749Z,41.20
2023-05-18T07:58:50.751Z,41.23
2023-05-18T07:59:50.769Z,41.20
2023-05-18T08:00:50.800Z,41.17
2023-05-18T08:01:50.846Z,41.19
2023-05-18T08:02:50.936Z,41.18
2023-05-18T08:03:50.948Z,41.18
2023-05-18T08:04:50.852Z,41.22
2023-05-18T08:05:50.861Z,41.21
2023-05-18T08:06:50.896Z,41.19
2023-05-18T08:07:50.911Z,41.22
2023-05-18T08:08:50.929Z,41.19
2023-05-18T08:09:50.949Z,41.21
2023-05-18T08:10:50.952Z,41.21
2023-05-18T08:11:50.994Z,41.21
2023-05-18T08:12:51.001Z,41.16
2023-05-18T08:13:51.022Z,41.19
2023-05-18T08:14:51.028Z,41.20
2023-05-18T08:16:02.925Z,41.22
2023-05-18T08:16:52.306Z,41.20
2023-05-18T08:17:51.287Z,41.18
2023-05-18T08:18:51.386Z,41.19
2023-05-18T08:19:51.317Z,41.21
2023-05-18T08:20:51.349Z,41.18
2023-05-18T08:21:51.371Z,41.19
2023-05-18T08:22:51.379Z,41.19
2023-05-18T08:23:51.388Z,41.16
2023-05-18T08:24:51.400Z,41.16
2023-05-18T08:25:51.409Z,41.17
2023-05-18T08:26:51.419Z,41.18
2023-05-18T08:27:51.445Z,41.17
2023-05-18T08:28:51.441Z,41.19
2023-05-18T08:29:51.445Z,41.17
2023-05-18T08:30:51.455Z,41.19
2023-05-18T08:31:51.467Z,41.18
2023-05-18T08:32:51.509Z,41.18
2023-05-18T08:33:51.478Z,41.20
2023-05-18T08:34:51.494Z,41.17
2023-05-18T08:35:51.496Z,41.16
2023-05-18T08:36:51.496Z,41.13
2023-05-18T08:37:51.510Z,41.16
2023-05-18T08:38:51.515Z,41.15
2023-05-18T08:39:51.530Z,41.17
2023-05-18T08:40:51.534Z,41.15
2023-05-18T08:41:51.538Z,41.16
2023-05-18T08:42:51.551Z,41.16
2023-05-18T08:43:51.568Z,41.18
2023-05-18T08:44:51.574Z,41.18
2023-05-18T08:45:51.593Z,41.16
2023-05-18T08:46:51.604Z,41.14
2023-05-18T08:47:51.703Z,41.18
2023-05-18T08:48:51.660Z,41.16
2023-05-18T08:49:51.647Z,41.17
2023-05-18T08:50:51.642Z,41.17
2023-05-18T08:51:51.653Z,41.16
2023-05-18T08:52:51.664Z,41.17
2023-05-18T08:53:51.687Z,41.18
2023-05-18T08:54:51.725Z,41.17
2023-05-18T08:55:51.781Z,41.18
2023-05-18T08:56:51.807Z,41.18
2023-05-18T08:57:51.824Z,41.16
2023-05-18T08:58:51.858Z,41.17
2023-05-18T08:59:51.904Z,41.16
2023-05-18T09:00:51.939Z,41.16
2023-05-18T09:01:52.042Z,41.16
2023-05-18T09:02:52.102Z,41.17
2023-05-18T09:03:52.034Z,41.16
2023-05-18T09:04:52.259Z,41.17
2023-05-18T09:05:52.103Z,41.16
2023-05-18T09:06:52.123Z,41.15
2023-05-18T09:07:52.150Z,41.16
2023-05-18T09:08:52.165Z,41.16
2023-05-18T09:09:52.221Z,41.15
2023-05-18T09:10:52.224Z,41.14
2023-05-18T09:11:52.249Z,41.15
2023-05-18T09:12:52.252Z,41.14
2023-05-18T09:13:52.300Z,41.14
2023-05-18T09:14:52.301Z,41.16
2023-05-18T09:15:52.356Z,41.14
2023-05-18T09:16:52.364Z,41.13
2023-05-18T09:17:52.485Z,41.15
2023-05-18T09:18:52.573Z,41.15
2023-05-18T09:19:52.444Z,41.12
2023-05-18T09:20:52.471Z,41.13
2023-05-18T09:21:52.532Z,41.15
2023-05-18T09:22:52.545Z,41.14
2023-05-18T09:23:52.584Z,41.13
2023-05-18T09:24:52.627Z,41.13
2023-05-18T09:25:52.833Z,41.15
2023-05-18T09:26:52.709Z,41.17
2023-05-18T09:27:53.315Z,41.13
2023-05-18T09:28:52.759Z,41.17
2023-05-18T09:29:52.794Z,41.15
2023-05-18T09:30:52.821Z,41.13
2023-05-18T09:31:52.880Z,41.14
2023-05-18T09:32:52.973Z,41.15
2023-05-18T09:33:52.990Z,41.12
2023-05-18T09:34:52.966Z,41.14
2023-05-18T09:35:52.989Z,41.13
2023-05-18T09:36:53.106Z,41.12
2023-05-18T09:37:53.012Z,41.12
2023-05-18T09:38:53.031Z,41.12
2023-05-18T09:39:53.049Z,41.12
2023-05-18T09:40:53.076Z,41.11
2023-05-18T09:41:53.193Z,41.15
2023-05-18T09:42:53.133Z,41.12
2023-05-18T09:43:53.138Z,41.12
2023-05-18T09:44:53.161Z,41.12
2023-05-18T09:45:53.179Z,41.12
2023-05-18T09:46:53.215Z,41.12
2023-05-18T09:47:53.243Z,41.12
2023-05-18T09:48:53.238Z,41.10
2023-05-18T09:49:53.247Z,41.13
2023-05-18T09:50:53.296Z,41.10
2023-05-18T09:51:53.320Z,41.13
2023-05-18T09:52:53.352Z,41.11
2023-05-18T09:53:53.368Z,41.10
2023-05-18T09:54:53.466Z,41.11
2023-05-18T09:55:53.424Z,41.15
2023-05-18T09:57:09.016Z,41.13
2023-05-18T09:57:54.462Z,41.13
2023-05-18T09:58:53.493Z,41.12
2023-05-18T09:59:53.466Z,41.13
2023-05-18T10:00:53.504Z,41.12
2023-05-18T10:01:53.494Z,41.12
2023-05-18T10:02:53.580Z,41.14
2023-05-18T10:03:53.552Z,41.10
2023-05-18T10:04:53.505Z,41.12
2023-05-18T10:05:53.521Z,41.11
2023-05-18T10:06:53.516Z,41.13
2023-05-18T10:07:53.533Z,41.14
2023-05-18T10:08:53.540Z,41.13
2023-05-18T10:09:53.545Z,41.13
2023-05-18T10:10:53.551Z,41.11
2023-05-18T10:11:53.554Z,41.13
2023-05-18T10:12:53.556Z,41.14
2023-05-18T10:13:53.567Z,41.12
2023-05-18T10:14:53.572Z,41.13
2023-05-18T10:15:53.573Z,41.12
2023-05-18T10:17:03.475Z,41.12
2023-05-18T10:17:54.632Z,41.13
2023-05-18T10:18:53.634Z,41.13
2023-05-18T10:19:53.595Z,41.13
2023-05-18T10:20:53.617Z,41.17
2023-05-18T10:21:53.613Z,41.13
2023-05-18T10:22:53.617Z,41.15
2023-05-18T10:23:53.635Z,41.11
2023-05-18T10:24:53.630Z,41.12
2023-05-18T10:25:53.643Z,41.11
2023-05-18T10:26:55.121Z,41.10
2023-05-18T10:27:53.663Z,41.12
2023-05-18T10:28:53.680Z,41.11
2023-05-18T10:29:53.668Z,41.11
2023-05-18T10:30:53.698Z,41.13
2023-05-18T10:31:53.708Z,41.13
2023-05-18T10:32:53.713Z,41.15
2023-05-18T10:33:53.687Z,41.14
2023-05-18T10:34:53.703Z,41.14
2023-05-18T10:35:53.744Z,41.12
2023-05-18T10:36:53.734Z,41.12
2023-05-18T10:37:53.726Z,41.13
2023-05-18T10:38:53.724Z,41.09
2023-05-18T10:39:53.730Z,41.14
2023-05-18T10:40:53.751Z,41.12
2023-05-18T10:41:53.750Z,41.11
2023-05-18T10:42:53.753Z,41.12
2023-05-18T10:43:53.750Z,41.13
2023-05-18T10:44:53.755Z,41.13
2023-05-18T10:45:53.795Z,41.13
2023-05-18T10:46:53.796Z,41.13
2023-05-18T10:47:53.917Z,41.16
2023-05-18T10:48:53.769Z,41.15
2023-05-18T10:49:53.798Z,41.10
2023-05-18T10:50:53.775Z,41.12
2023-05-18T10:51:53.766Z,41.11
2023-05-18T10:52:53.773Z,41.11
2023-05-18T10:53:55.995Z,41.11
2023-05-18T10:54:54.041Z,41.12
2023-05-18T10:55:54.048Z,41.12
2023-05-18T10:56:53.963Z,41.12
2023-05-18T10:57:54.076Z,41.11
2023-05-18T10:58:54.052Z,41.10
2023-05-18T10:59:54.030Z,41.11
2023-05-18T11:00:54.048Z,41.13
2023-05-18T11:01:54.203Z,41.10
2023-05-18T11:02:54.111Z,41.10
2023-05-18T11:03:54.094Z,41.09
2023-05-18T11:04:54.303Z,41.11
2023-05-18T11:05:54.104Z,41.11
2023-05-18T11:06:54.119Z,41.10
2023-05-18T11:07:54.159Z,41.08
2023-05-18T11:08:54.143Z,41.11
2023-05-18T11:09:54.169Z,41.10
2023-05-18T11:10:54.186Z,41.12
2023-05-18T11:11:54.186Z,41.11
2023-05-18T11:12:54.211Z,41.12
2023-05-18T11:13:54.350Z,41.11
2023-05-18T11:14:54.248Z,41.13
2023-05-18T11:15:54.308Z,41.10
2023-05-18T11:16:54.429Z,41.09
2023-05-18T11:17:54.323Z,41.09
2023-05-18T11:18:54.311Z,41.12
2023-05-18T11:19:54.309Z,41.12
2023-05-18T11:20:54.310Z,41.10
2023-05-18T11:21:54.328Z,41.13
2023-05-18T11:22:54.362Z,41.11
2023-05-18T11:23:54.348Z,41.11
2023-05-18T11:24:54.375Z,41.09
2023-05-18T11:25:54.392Z,41.12
2023-05-18T11:26:54.409Z,41.10
2023-05-18T11:27:54.448Z,41.13
2023-05-18T11:28:54.482Z,41.10
2023-05-18T11:30:07.822Z,41.10
2023-05-18T11:30:55.499Z,41.10
2023-05-18T11:31:54.597Z,41.09
2023-05-18T11:32:54.577Z,41.13
2023-05-18T11:33:54.502Z,41.12
2023-05-18T11:34:54.522Z,41.12
2023-05-18T11:35:54.514Z,41.11
2023-05-18T11:36:54.522Z,41.12
2023-05-18T11:37:54.527Z,41.11
2023-05-18T11:38:54.518Z,41.10
2023-05-18T11:39:59.088Z,41.11
2023-05-18T11:40:55.539Z,41.13
2023-05-18T11:41:54.565Z,41.14
2023-05-18T11:42:54.536Z,41.12
2023-05-18T11:43:54.531Z,41.08
2023-05-18T11:44:54.538Z,41.09
2023-05-18T11:45:55.094Z,41.12
2023-05-18T11:46:54.548Z,41.11
2023-05-18T11:47:54.598Z,41.12
2023-05-18T11:48:54.576Z,41.11
2023-05-18T11:49:54.569Z,41.09
2023-05-18T11:50:54.564Z,41.10
2023-05-18T11:51:55.567Z,41.07
2023-05-18T11:52:54.747Z,41.11
2023-05-18T11:53:54.757Z,41.08
2023-05-18T11:54:54.781Z,41.08
2023-05-18T11:55:54.842Z,41.08
2023-05-18T11:56:54.831Z,41.09
2023-05-18T11:57:54.857Z,41.09
2023-05-18T11:58:54.880Z,41.12
2023-05-18T11:59:54.918Z,41.09
2023-05-18T12:00:54.976Z,41.10
2023-05-18T12:01:54.967Z,41.12
2023-05-18T12:02:55.144Z,41.09
2023-05-18T12:03:55.099Z,41.12
2023-05-18T12:04:55.041Z,41.09
2023-05-18T12:05:55.089Z,41.11
2023-05-18T12:06:55.122Z,41.10
2023-05-18T12:07:55.179Z,41.11
2023-05-18T12:08:55.198Z,41.09
2023-05-18T12:09:55.209Z,41.08
2023-05-18T12:10:55.226Z,41.08
2023-05-18T12:11:55.257Z,41.08
2023-05-18T12:12:55.272Z,41.10
2023-05-18T12:13:55.309Z,41.08
2023-05-18T12:14:55.319Z,41.08
2023-05-18T12:15:56.881Z,41.10
2023-05-18T12:16:55.343Z,41.07
2023-05-18T12:17:55.373Z,41.08
2023-05-18T12:18:55.522Z,41.10
2023-05-18T12:19:55.325Z,41.07
2023-05-18T12:20:55.332Z,41.06
2023-05-18T12:21:57.281Z,41.07
2023-05-18T12:22:55.357Z,41.09
2023-05-18T12:23:55.332Z,41.10
2023-05-18T12:24:55.338Z,41.06
2023-05-18T12:25:55.358Z,41.09
2023-05-18T12:26:55.346Z,41.07
2023-05-18T12:27:55.374Z,41.09
2023-05-18T12:28:55.363Z,41.07
2023-05-18T12:29:55.389Z,41.08
2023-05-18T12:30:55.401Z,41.06
2023-05-18T12:31:55.399Z,41.09
2023-05-18T12:32:55.542Z,41.04
2023-05-18T12:33:58.819Z,41.06
2023-05-18T12:34:55.420Z,41.07
2023-05-18T12:35:55.430Z,41.05
2023-05-18T12:36:55.432Z,41.06
2023-05-18T12:37:55.476Z,41.06
2023-05-18T12:38:55.443Z,41.06
2023-05-18T12:39:55.459Z,41.04
2023-05-18T12:40:55.464Z,41.06
2023-05-18T12:41:55.465Z,41.04
2023-05-18T12:42:55.494Z,41.04
2023-05-18T12:43:55.471Z,41.01
2023-05-18T12:44:55.479Z,41.02
2023-05-18T12:45:55.536Z,41.01
2023-05-18T12:46:55.546Z,41.03
2023-05-18T12:47:55.957Z,41.01
2023-05-18T12:48:55.503Z,41.06
2023-05-18T12:49:55.523Z,41.04
2023-05-18T12:50:55.538Z,41.05
2023-05-18T12:51:55.528Z,41.02
2023-05-18T12:52:55.528Z,41.04